createdAt,value
2024-04-25T00:01:10.282Z,13.40
2024-04-25T00:03:55.733Z,13.40
2024-04-25T00:06:41.454Z,13.40
2024-04-25T00:09:27.197Z,13.40
2024-04-25T00:12:12.964Z,13.40
2024-04-25T00:14:58.831Z,13.40
2024-04-25T00:17:44.708Z,13.40
2024-04-25T00:20:30.420Z,13.40
2024-04-25T00:23:16.230Z,13.40
2024-04-25T00:26:01.941Z,13.40
2024-04-25T00:28:48.131Z,13.30
2024-04-25T00:31:34.548Z,13.40
2024-04-25T00:34:20.532Z,13.30
2024-04-25T00:37:05.965Z,13.30
2024-04-25T00:39:52.462Z,13.30
2024-04-25T00:42:38.103Z,13.30
2024-04-25T00:45:23.794Z,13.30
2024-04-25T00:48:09.813Z,13.30
2024-04-25T00:50:55.784Z,14.40
2024-04-25T00:53:41.379Z,13.30
2024-04-25T00:56:27.263Z,13.30
2024-04-25T00:59:14.307Z,13.30
2024-04-25T01:02:01.662Z,13.30
2024-04-25T01:04:48.457Z,13.30
2024-04-25T01:07:34.278Z,13.30
2024-04-25T01:10:20.057Z,13.30
2024-04-25T01:13:05.907Z,13.30
2024-04-25T01:15:52.182Z,13.30
2024-04-25T01:18:37.490Z,13.30
2024-04-25T01:21:23.306Z,13.30
2024-04-25T01:24:09.859Z,13.30
2024-04-25T01:26:59.738Z,13.30
2024-04-25T01:29:45.645Z,13.30
2024-04-25T01:32:31.793Z,13.30
2024-04-25T01:35:17.588Z,13.30
2024-04-25T01:38:03.447Z,13.30
2024-04-25T01:40:51.521Z,13.30
2024-04-25T01:43:37.198Z,13.30
2024-04-25T01:46:22.915Z,13.30
2024-04-25T01:49:08.864Z,13.30
2024-04-25T01:51:54.424Z,13.30
2024-04-25T01:54:40.280Z,13.30
2024-04-25T01:57:25.942Z,13.20
2024-04-25T02:00:11.953Z,13.20
2024-04-25T02:02:57.616Z,13.30
2024-04-25T02:05:44.501Z,13.20
2024-04-25T02:08:30.081Z,13.20
2024-04-25T02:11:15.878Z,13.20
2024-04-25T02:14:01.697Z,13.30
2024-04-25T02:16:48.185Z,13.30
2024-04-25T02:19:33.875Z,13.20
2024-04-25T02:22:38.527Z,13.20
2024-04-25T02:25:24.241Z,13.20
2024-04-25T02:28:09.949Z,13.30
2024-04-25T02:30:55.686Z,13.30
2024-04-25T02:33:41.476Z,13.30
2024-04-25T02:36:27.138Z,13.30
2024-04-25T02:39:13.006Z,13.30
2024-04-25T02:41:58.643Z,13.40
2024-04-25T02:44:44.382Z,13.40
2024-04-25T02:47:30.379Z,13.40
2024-04-25T02:50:15.984Z,13.40
2024-04-25T02:53:01.642Z,13.40
2024-04-25T02:55:47.491Z,13.40
2024-04-25T02:58:33.546Z,13.40
2024-04-25T03:01:19.077Z,13.40
2024-04-25T03:04:05.280Z,13.40
2024-04-25T03:06:50.887Z,13.40
2024-04-25T03:09:36.708Z,13.40
2024-04-25T03:12:22.482Z,13.40
2024-04-25T03:15:08.306Z,13.40
2024-04-25T03:17:54.644Z,13.40
2024-04-25T03:20:40.429Z,13.40
2024-04-25T03:23:26.226Z,13.40
2024-04-25T03:26:12.088Z,13.30
2024-04-25T03:28:57.673Z,13.40
2024-04-25T03:31:43.277Z,13.40
2024-04-25T03:34:29.094Z,13.30
2024-04-25T03:37:14.955Z,13.40
2024-04-25T03:40:00.547Z,13.30
2024-04-25T03:42:46.389Z,13.30
2024-04-25T03:45:32.072Z,13.30
2024-04-25T03:48:17.977Z,13.40
2024-04-25T03:51:03.765Z,13.30
2024-04-25T03:53:49.422Z,13.30
2024-04-25T03:56:35.122Z,13.30
2024-04-25T03:59:20.968Z,13.40
2024-04-25T04:02:06.756Z,13.30
2024-04-25T04:04:52.420Z,13.30
2024-04-25T04:07:38.213Z,13.30
2024-04-25T04:10:23.974Z,13.30
2024-04-25T04:13:09.723Z,13.30
2024-04-25T04:15:55.620Z,13.30
2024-04-25T04:18:42.686Z,13.40
2024-04-25T04:21:28.444Z,13.30
2024-04-25T04:24:15.676Z,13.30
2024-04-25T04:27:01.163Z,13.30
2024-04-25T04:29:46.828Z,13.30
2024-04-25T04:32:32.546Z,13.30
2024-04-25T04:35:18.277Z,13.30
2024-04-25T04:38:04.053Z,13.30
2024-04-25T04:40:49.688Z,13.30
2024-04-25T04:43:38.075Z,13.30
2024-04-25T04:46:23.611Z,13.30
2024-04-25T04:49:09.482Z,13.30
2024-04-25T04:51:55.114Z,13.30
2024-04-25T04:54:40.982Z,13.30
2024-04-25T04:57:27.235Z,13.30
2024-04-25T05:00:12.892Z,13.30
2024-04-25T05:02:58.805Z,13.30
2024-04-25T05:05:44.388Z,13.30
2024-04-25T05:08:32.769Z,13.30
2024-04-25T05:11:18.453Z,13.30
2024-04-25T05:14:04.484Z,13.30
2024-04-25T05:16:51.715Z,13.30
2024-04-25T05:19:37.530Z,13.30
2024-04-25T05:22:23.286Z,13.30
2024-04-25T05:25:08.987Z,13.30
2024-04-25T05:27:55.390Z,13.40
2024-04-25T05:30:40.834Z,13.30
2024-04-25T05:33:26.823Z,13.30
2024-04-25T05:36:13.892Z,13.30
2024-04-25T05:38:59.804Z,13.30
2024-04-25T05:41:45.476Z,13.30
2024-04-25T05:44:31.320Z,13.30
2024-04-25T05:47:19.377Z,13.30
2024-04-25T05:50:07.795Z,13.30
2024-04-25T05:52:55.172Z,13.30
2024-04-25T05:55:45.146Z,13.40
2024-04-25T05:58:32.118Z,13.30
2024-04-25T06:01:19.282Z,13.30
2024-04-25T06:04:05.203Z,13.40
2024-04-25T06:06:50.754Z,13.40
2024-04-25T06:09:36.686Z,13.40
2024-04-25T06:12:22.524Z,13.40
2024-04-25T06:15:08.351Z,13.40
2024-04-25T06:17:54.539Z,13.40
2024-04-25T06:20:40.337Z,13.40
2024-04-25T06:23:26.200Z,13.40
2024-04-25T06:26:11.914Z,13.40
2024-04-25T06:28:57.544Z,13.40
2024-04-25T06:31:43.348Z,13.40
2024-04-25T06:34:31.594Z,13.40
2024-04-25T06:37:18.086Z,13.40
2024-04-25T06:40:03.724Z,13.40
2024-04-25T06:42:49.372Z,13.40
2024-04-25T06:45:35.279Z,13.40
2024-04-25T06:48:20.907Z,13.40
2024-04-25T06:51:06.520Z,13.40
2024-04-25T06:53:52.477Z,13.40
2024-04-25T06:56:37.882Z,13.50
2024-04-25T06:59:23.621Z,13.50
2024-04-25T07:02:09.696Z,13.50
2024-04-25T07:04:59.423Z,13.40
2024-04-25T07:07:45.889Z,13.50
2024-04-25T07:10:31.688Z,13.50
2024-04-25T07:13:17.600Z,13.50
2024-04-25T07:16:05.532Z,13.50
2024-04-25T07:18:51.254Z,13.50
2024-04-25T07:21:36.801Z,13.50
2024-04-25T07:24:23.075Z,13.50
2024-04-25T07:27:08.267Z,13.50
2024-04-25T07:29:54.277Z,13.50
2024-04-25T07:32:40.538Z,13.50
2024-04-25T07:35:26.142Z,13.50
2024-04-25T07:38:11.950Z,13.60
2024-04-25T07:40:57.747Z,13.60
2024-04-25T07:43:43.420Z,13.60
2024-04-25T07:46:29.268Z,13.60
2024-04-25T07:49:17.245Z,13.60
2024-04-25T07:52:03.070Z,13.70
2024-04-25T07:54:52.013Z,13.70
2024-04-25T07:57:37.727Z,13.70
2024-04-25T08:00:23.416Z,13.70
2024-04-25T08:03:09.126Z,13.80
2024-04-25T08:05:54.801Z,13.80
2024-04-25T08:08:40.677Z,13.80
2024-04-25T08:11:26.682Z,13.80
2024-04-25T08:14:12.292Z,13.90
2024-04-25T08:16:57.889Z,13.90
2024-04-25T08:19:43.584Z,13.90
2024-04-25T08:22:31.610Z,13.90
2024-04-25T08:25:17.302Z,13.90
2024-04-25T08:28:03.022Z,14.00
2024-04-25T08:30:48.698Z,14.00
2024-04-25T08:33:34.685Z,14.10
2024-04-25T08:36:20.310Z,14.10
2024-04-25T08:39:06.025Z,14.10
2024-04-25T08:41:52.178Z,14.10
2024-04-25T08:44:38.942Z,14.20
2024-04-25T08:47:25.168Z,14.10
2024-04-25T08:50:12.223Z,14.20
2024-04-25T08:53:00.051Z,14.20
2024-04-25T08:55:45.935Z,14.20
2024-04-25T08:58:31.675Z,14.20
2024-04-25T09:01:18.378Z,14.30
2024-04-25T09:04:04.271Z,14.20
2024-04-25T09:06:49.899Z,14.20
2024-04-25T09:09:35.800Z,14.20
2024-04-25T09:12:21.694Z,14.20
2024-04-25T09:15:07.437Z,14.20
2024-04-25T09:17:57.832Z,14.20
2024-04-25T09:20:44.332Z,14.30
2024-04-25T09:23:29.987Z,14.30
2024-04-25T09:26:15.932Z,14.30
2024-04-25T09:29:02.745Z,14.20
2024-04-25T09:31:48.541Z,14.20
2024-04-25T09:34:34.164Z,14.20
2024-04-25T09:37:21.780Z,14.10
2024-04-25T09:40:07.749Z,14.10
2024-04-25T09:42:54.010Z,14.10
2024-04-25T09:45:41.487Z,14.20
2024-04-25T09:48:31.103Z,14.20
2024-04-25T09:51:23.226Z,14.30
2024-04-25T09:54:16.090Z,14.30
2024-04-25T09:57:05.935Z,14.40
2024-04-25T09:59:53.027Z,14.30
2024-04-25T10:02:39.315Z,14.30
2024-04-25T10:05:24.610Z,14.30
2024-04-25T10:08:10.521Z,14.20
2024-04-25T10:10:58.128Z,14.20
2024-04-25T10:13:50.048Z,14.20
2024-04-25T10:16:36.895Z,14.20
2024-04-25T10:19:33.034Z,14.20
2024-04-25T10:22:23.542Z,14.20
2024-04-25T10:25:13.231Z,14.30
2024-04-25T10:28:00.052Z,14.40
2024-04-25T10:30:52.673Z,14.40
2024-04-25T10:33:38.622Z,14.50
2024-04-25T10:36:27.969Z,14.60
2024-04-25T10:39:19.649Z,14.60
2024-04-25T10:42:04.963Z,14.70
2024-04-25T10:44:55.056Z,14.70
2024-04-25T10:47:40.660Z,14.80
2024-04-25T10:50:26.195Z,14.80
2024-04-25T10:53:12.021Z,14.90
2024-04-25T10:55:57.649Z,14.80
2024-04-25T10:58:50.681Z,14.80
2024-04-25T11:01:36.387Z,14.80
2024-04-25T11:04:31.537Z,14.70
2024-04-25T11:07:18.511Z,14.80
2024-04-25T11:10:05.000Z,14.80
2024-04-25T11:12:50.585Z,14.90
2024-04-25T11:15:38.558Z,14.90
2024-04-25T11:18:26.245Z,14.90
2024-04-25T11:21:13.002Z,14.90
2024-04-25T11:23:58.589Z,14.90
2024-04-25T11:26:44.745Z,15.00
2024-04-25T11:29:33.402Z,15.00
2024-04-25T11:32:19.201Z,15.00
2024-04-25T11:35:08.477Z,15.00
2024-04-25T11:37:57.624Z,15.00
2024-04-25T11:40:43.225Z,14.90
2024-04-25T11:43:28.908Z,14.80
2024-04-25T11:46:14.502Z,14.80
2024-04-25T11:49:05.018Z,14.80
2024-04-25T11:51:51.261Z,14.80
2024-04-25T11:54:36.756Z,14.70
2024-04-25T11:57:22.429Z,14.70
2024-04-25T12:00:08.482Z,14.70
2024-04-25T12:02:58.263Z,14.70
2024-04-25T12:05:44.014Z,14.70
2024-04-25T12:08:30.987Z,14.70
2024-04-25T12:11:16.629Z,14.70
2024-04-25T12:14:02.729Z,14.70
2024-04-25T12:16:48.342Z,14.80
2024-04-25T12:19:34.123Z,14.80
2024-04-25T12:22:19.845Z,14.80
2024-04-25T12:25:05.822Z,14.80
2024-04-25T12:27:51.441Z,14.90
2024-04-25T12:30:38.495Z,15.00
2024-04-25T12:33:24.058Z,15.00
2024-04-25T12:36:09.774Z,15.10
2024-04-25T12:38:55.718Z,15.20
2024-04-25T12:41:41.324Z,15.30
2024-04-25T12:44:30.395Z,15.30
2024-04-25T12:47:16.649Z,15.30
2024-04-25T12:50:02.541Z,15.30
2024-04-25T12:52:48.306Z,15.30
2024-04-25T12:55:34.288Z,15.30
2024-04-25T12:58:19.893Z,15.30
2024-04-25T13:01:05.733Z,15.40
2024-04-25T13:03:52.822Z,15.50
2024-04-25T13:06:40.021Z,15.60
2024-04-25T13:09:28.434Z,15.60
2024-04-25T13:12:15.165Z,15.50
2024-04-25T13:15:00.889Z,15.50
2024-04-25T13:17:46.792Z,15.40
2024-04-25T13:20:32.708Z,15.40
2024-04-25T13:23:18.313Z,15.30
2024-04-25T13:26:04.648Z,15.20
2024-04-25T13:28:50.344Z,15.20
2024-04-25T13:31:36.598Z,15.10
2024-04-25T13:34:22.996Z,15.10
2024-04-25T13:37:08.798Z,15.10
2024-04-25T13:39:55.999Z,15.10
2024-04-25T13:42:41.544Z,15.10
2024-04-25T13:45:27.131Z,15.20
2024-04-25T13:48:13.234Z,15.30
2024-04-25T13:50:59.127Z,15.60
2024-04-25T13:53:44.568Z,15.90
2024-04-25T13:56:31.968Z,16.00
2024-04-25T13:59:21.956Z,15.90
2024-04-25T14:02:07.643Z,15.90
2024-04-25T14:04:53.101Z,15.80
2024-04-25T14:07:38.835Z,15.70
2024-04-25T14:10:24.760Z,15.60
2024-04-25T14:13:10.604Z,15.50
2024-04-25T14:15:56.328Z,15.50
2024-04-25T14:18:42.120Z,15.60
2024-04-25T14:21:27.823Z,15.80
2024-04-25T14:24:16.219Z,16.30
2024-04-25T14:27:20.545Z,16.70
2024-04-25T14:30:06.503Z,15.80
2024-04-25T14:32:52.040Z,16.80
2024-04-25T14:35:37.810Z,16.70
2024-04-25T14:38:24.442Z,16.80
2024-04-25T14:41:11.480Z,16.70
2024-04-25T14:43:58.790Z,16.70
2024-04-25T14:46:44.714Z,16.70
2024-04-25T14:49:32.171Z,17.00
2024-04-25T14:52:17.856Z,17.40
2024-04-25T14:55:03.978Z,17.70
2024-04-25T14:57:49.544Z,17.80
2024-04-25T15:00:35.330Z,17.70
2024-04-25T15:03:20.918Z,17.50
2024-04-25T15:06:06.592Z,17.30
2024-04-25T15:08:52.368Z,17.10
2024-04-25T15:11:38.066Z,16.80
2024-04-25T15:14:24.017Z,16.70
2024-04-25T15:17:09.977Z,16.60
2024-04-25T15:19:55.516Z,16.40
2024-04-25T15:22:41.191Z,16.40
2024-04-25T15:25:27.860Z,16.20
2024-04-25T15:28:13.333Z,16.00
2024-04-25T15:30:59.013Z,15.90
2024-04-25T15:33:44.735Z,15.80
2024-04-25T15:36:30.392Z,15.70
2024-04-25T15:39:16.055Z,15.60
2024-04-25T15:42:01.848Z,15.60
2024-04-25T15:44:48.181Z,15.60
2024-04-25T15:47:33.700Z,15.60
2024-04-25T15:50:21.104Z,15.50
2024-04-25T15:53:09.134Z,15.50
2024-04-25T15:55:56.524Z,15.50
2024-04-25T15:58:44.578Z,15.50
2024-04-25T16:01:30.744Z,15.50
2024-04-25T16:04:17.403Z,15.40
2024-04-25T16:07:03.369Z,15.40
2024-04-25T16:09:49.966Z,15.40
2024-04-25T16:12:35.601Z,15.30
2024-04-25T16:15:21.486Z,15.30
2024-04-25T16:18:07.456Z,15.20
2024-04-25T16:20:54.010Z,15.30
2024-04-25T16:23:40.774Z,15.30
2024-04-25T16:26:27.630Z,15.40
2024-04-25T16:29:13.886Z,15.50
2024-04-25T16:31:59.542Z,15.60
2024-04-25T16:34:45.258Z,15.60
2024-04-25T16:37:31.071Z,15.60
2024-04-25T16:40:16.955Z,15.60
2024-04-25T16:43:02.694Z,15.50
2024-04-25T16:45:53.228Z,15.50
2024-04-25T16:48:38.998Z,15.40
2024-04-25T16:51:26.782Z,15.40
2024-04-25T16:54:15.509Z,15.30
2024-04-25T16:57:01.290Z,15.30
2024-04-25T16:59:48.120Z,15.30
2024-04-25T17:02:33.898Z,15.20
2024-04-25T17:05:21.625Z,15.20
2024-04-25T17:08:08.201Z,15.10
2024-04-25T17:10:54.091Z,15.00
2024-04-25T17:13:40.453Z,15.00
2024-04-25T17:16:26.803Z,15.00
2024-04-25T17:19:12.757Z,15.00
2024-04-25T17:22:00.973Z,14.90
2024-04-25T17:24:46.489Z,14.90
2024-04-25T17:27:32.081Z,14.90
2024-04-25T17:30:17.988Z,14.90
2024-04-25T17:33:06.085Z,14.80
2024-04-25T17:35:51.730Z,14.80
2024-04-25T17:38:40.708Z,14.80
2024-04-25T17:41:26.253Z,14.80
2024-04-25T17:44:11.994Z,14.80
2024-04-25T17:47:01.357Z,14.70
2024-04-25T17:49:47.876Z,14.70
2024-04-25T17:52:33.251Z,14.70
2024-04-25T17:55:19.030Z,14.70
2024-04-25T17:58:05.289Z,14.70
2024-04-25T18:00:51.075Z,14.60
2024-04-25T18:03:36.944Z,14.60
2024-04-25T18:06:22.660Z,14.60
2024-04-25T18:09:08.908Z,14.60
2024-04-25T18:11:54.796Z,14.60
2024-04-25T18:14:40.375Z,14.60
2024-04-25T18:17:26.711Z,14.60
2024-04-25T18:20:12.422Z,14.60
2024-04-25T18:22:58.549Z,14.60
2024-04-25T18:25:45.914Z,14.60
2024-04-25T18:28:31.607Z,14.50
2024-04-25T18:31:22.183Z,14.60
2024-04-25T18:34:07.821Z,14.60
2024-04-25T18:36:53.545Z,14.60
2024-04-25T18:39:39.410Z,14.60
2024-04-25T18:42:25.398Z,14.60
2024-04-25T18:45:11.305Z,14.60
2024-04-25T18:47:57.013Z,14.70
2024-04-25T18:50:42.822Z,14.70
2024-04-25T18:53:28.497Z,14.60
2024-04-25T18:56:14.509Z,14.70
2024-04-25T18:59:00.071Z,14.70
2024-04-25T19:01:45.805Z,14.70
2024-04-25T19:04:31.587Z,14.70
2024-04-25T19:07:17.333Z,14.50
2024-04-25T19:10:03.393Z,14.70
2024-04-25T19:12:49.824Z,14.70
2024-04-25T19:15:35.446Z,14.70
2024-04-25T19:18:24.428Z,14.60
2024-04-25T19:21:10.081Z,14.70
2024-04-25T19:23:55.974Z,14.60
2024-04-25T19:26:42.128Z,14.60
2024-04-25T19:29:29.455Z,14.60
2024-04-25T19:32:16.856Z,14.60
2024-04-25T19:35:02.739Z,14.60
2024-04-25T19:37:49.240Z,14.60
2024-04-25T19:40:34.658Z,14.60
2024-04-25T19:43:21.373Z,14.60
2024-04-25T19:46:10.163Z,14.60
2024-04-25T19:48:55.783Z,14.60
2024-04-25T19:51:41.659Z,14.60
2024-04-25T19:54:27.060Z,14.60
2024-04-25T19:57:13.257Z,14.60
2024-04-25T20:00:01.459Z,16.60
2024-04-25T20:02:47.220Z,14.60
2024-04-25T20:05:33.019Z,14.50
2024-04-25T20:08:18.777Z,14.50
2024-04-25T20:11:04.558Z,14.50
2024-04-25T20:13:50.375Z,14.50
2024-04-25T20:16:36.513Z,14.60
2024-04-25T20:19:41.318Z,14.50
2024-04-25T20:22:27.000Z,14.50
2024-04-25T20:25:12.601Z,14.50
2024-04-25T20:27:58.325Z,13.90
2024-04-25T20:30:44.224Z,14.60
2024-04-25T20:33:30.500Z,14.50
2024-04-25T20:36:16.429Z,14.50
2024-04-25T20:39:02.214Z,14.50
2024-04-25T20:41:47.977Z,14.50
2024-04-25T20:44:33.867Z,14.50
2024-04-25T20:47:19.686Z,14.50
2024-04-25T20:50:05.885Z,14.50
2024-04-25T20:52:51.267Z,14.50
2024-04-25T20:55:36.960Z,14.50
2024-04-25T20:58:23.242Z,14.40
2024-04-25T21:01:09.937Z,14.40
2024-04-25T21:03:55.512Z,14.40
2024-04-25T21:06:43.973Z,14.40
2024-04-25T21:09:31.189Z,14.40
2024-04-25T21:12:17.069Z,14.40
2024-04-25T21:15:03.510Z,14.40
2024-04-25T21:17:49.589Z,14.40
2024-04-25T21:20:35.112Z,14.30
2024-04-25T21:23:20.917Z,14.30
2024-04-25T21:26:06.823Z,14.40
2024-04-25T21:28:52.741Z,14.30
2024-04-25T21:31:44.686Z,14.30
2024-04-25T21:34:30.085Z,14.30
2024-04-25T21:37:15.618Z,14.30
2024-04-25T21:40:01.488Z,14.30
2024-04-25T21:42:47.157Z,14.30
2024-04-25T21:45:32.807Z,14.30
2024-04-25T21:48:23.482Z,14.30
2024-04-25T21:51:08.948Z,14.20
2024-04-25T21:53:55.064Z,14.30
2024-04-25T21:56:41.019Z,14.30
2024-04-25T21:59:26.841Z,14.20
2024-04-25T22:02:12.704Z,14.30
2024-04-25T22:04:58.374Z,14.20
2024-04-25T22:07:44.221Z,14.20
2024-04-25T22:10:30.273Z,14.20
2024-04-25T22:13:16.020Z,14.30
2024-04-25T22:16:03.019Z,14.20
2024-04-25T22:18:50.798Z,15.30
2024-04-25T22:21:37.010Z,14.20
2024-04-25T22:24:24.609Z,14.20
2024-04-25T22:27:11.787Z,14.20
2024-04-25T22:29:57.505Z,14.20
2024-04-25T22:32:43.644Z,14.20
2024-04-25T22:35:29.368Z,14.20
2024-04-25T22:38:15.078Z,14.20
2024-04-25T22:41:00.812Z,14.20
2024-04-25T22:43:46.510Z,14.20
2024-04-25T22:46:32.115Z,14.20
2024-04-25T22:49:17.899Z,14.20
2024-04-25T22:52:03.443Z,14.20
2024-04-25T22:54:49.611Z,14.20
2024-04-25T22:57:35.429Z,14.20
2024-04-25T23:00:21.107Z,14.20
2024-04-25T23:03:08.364Z,14.20
2024-04-25T23:05:53.958Z,14.20
2024-04-25T23:08:39.673Z,14.20
2024-04-25T23:11:25.382Z,14.20
2024-04-25T23:14:10.970Z,14.20
2024-04-25T23:16:56.772Z,14.10
2024-04-25T23:19:45.458Z,14.10
2024-04-25T23:22:30.741Z,14.10
2024-04-25T23:25:16.843Z,14.10
2024-04-25T23:28:02.302Z,14.10
2024-04-25T23:30:49.318Z,14.10
2024-04-25T23:33:35.005Z,14.10
2024-04-25T23:36:20.528Z,14.10
2024-04-25T23:39:06.747Z,14.10
2024-04-25T23:41:52.375Z,14.10
2024-04-25T23:44:37.650Z,14.10
2024-04-25T23:47:23.626Z,14.10
2024-04-25T23:50:09.212Z,14.10
2024-04-25T23:52:54.824Z,14.10
2024-04-25T23:55:40.673Z,14.00
2024-04-25T23:58:26.379Z,14.10
